createdAt,value
2018-11-06T00:00:29.301Z,99.90
2018-11-06T00:03:02.421Z,99.90
2018-11-06T00:05:29.996Z,99.90
2018-11-06T00:07:57.527Z,99.90
2018-11-06T00:10:25.069Z,99.90
2018-11-06T00:12:52.640Z,99.90
2018-11-06T00:15:20.198Z,99.90
2018-11-06T00:17:47.719Z,99.90
2018-11-06T00:20:15.417Z,99.90
2018-11-06T00:22:42.963Z,99.90
2018-11-06T00:25:11.403Z,99.90
2018-11-06T00:27:40.141Z,99.90
2018-11-06T00:30:09.583Z,99.90
2018-11-06T00:32:37.526Z,99.90
2018-11-06T00:35:05.765Z,99.90
2018-11-06T00:37:33.327Z,99.90
2018-11-06T00:40:00.865Z,99.90
2018-11-06T00:42:29.260Z,99.90
2018-11-06T00:44:56.800Z,99.90
2018-11-06T00:47:24.327Z,99.90
2018-11-06T00:49:51.853Z,99.90
2018-11-06T00:52:21.465Z,99.90
2018-11-06T00:54:48.972Z,99.90
2018-11-06T00:57:16.500Z,99.90
2018-11-06T00:59:46.123Z,99.90
2018-11-06T01:02:13.788Z,99.90
2018-11-06T01:04:41.607Z,99.90
2018-11-06T01:07:09.148Z,99.90
2018-11-06T01:09:36.822Z,99.90
2018-11-06T01:12:04.628Z,99.90
2018-11-06T01:14:34.195Z,99.90
2018-11-06T01:17:02.794Z,99.90
2018-11-06T01:19:30.695Z,99.90
2018-11-06T01:21:58.264Z,99.90
2018-11-06T01:24:25.841Z,99.90
2018-11-06T01:26:58.891Z,99.90
2018-11-06T01:29:29.576Z,99.90
2018-11-06T01:31:58.208Z,99.90
2018-11-06T01:34:25.733Z,99.90
2018-11-06T01:36:53.315Z,99.90
2018-11-06T01:39:21.946Z,99.90
2018-11-06T01:41:51.710Z,99.90
2018-11-06T01:44:19.245Z,99.90
2018-11-06T01:46:47.311Z,99.90
2018-11-06T01:49:15.917Z,99.90
2018-11-06T01:51:43.754Z,99.90
2018-11-06T01:54:11.303Z,99.90
2018-11-06T01:56:39.099Z,99.90
2018-11-06T01:59:06.783Z,99.90
2018-11-06T02:01:34.283Z,99.90
2018-11-06T02:04:01.832Z,99.90
2018-11-06T02:06:29.394Z,99.90
2018-11-06T02:08:58.009Z,99.90
2018-11-06T02:11:27.651Z,99.90
2018-11-06T02:13:55.232Z,99.90
2018-11-06T02:16:22.910Z,99.90
2018-11-06T02:18:51.504Z,99.90
2018-11-06T02:21:19.158Z,99.90
2018-11-06T02:23:46.758Z,99.90
2018-11-06T02:26:17.443Z,99.90
2018-11-06T02:28:45.068Z,99.90
2018-11-06T02:31:12.649Z,99.90
2018-11-06T02:33:40.198Z,99.90
2018-11-06T02:36:08.993Z,99.90
2018-11-06T02:38:36.774Z,99.90
2018-11-06T02:41:10.823Z,99.90
2018-11-06T02:43:38.506Z,99.90
2018-11-06T02:46:06.123Z,99.90
2018-11-06T02:48:33.672Z,99.90
2018-11-06T02:51:03.315Z,99.90
2018-11-06T02:53:32.944Z,99.90
2018-11-06T02:56:00.538Z,99.90
2018-11-06T02:58:30.108Z,99.90
2018-11-06T03:00:57.777Z,99.90
2018-11-06T03:03:25.321Z,99.90
2018-11-06T03:05:54.135Z,99.90
2018-11-06T03:08:21.872Z,99.90
2018-11-06T03:10:49.534Z,99.90
2018-11-06T03:13:17.117Z,99.90
2018-11-06T03:15:44.643Z,99.90
2018-11-06T03:18:12.168Z,99.90
2018-11-06T03:20:39.765Z,99.90
2018-11-06T03:23:09.363Z,99.90
2018-11-06T03:25:37.115Z,99.90
2018-11-06T03:28:05.764Z,99.90
2018-11-06T03:30:33.444Z,99.90
2018-11-06T03:33:01.170Z,99.90
2018-11-06T03:35:29.583Z,99.90
2018-11-06T03:37:58.187Z,99.90
2018-11-06T03:40:25.743Z,99.90
2018-11-06T03:42:53.286Z,99.90
2018-11-06T03:45:20.895Z,99.90
2018-11-06T03:47:48.435Z,99.90
2018-11-06T03:50:16.071Z,99.90
2018-11-06T03:52:45.655Z,99.90
2018-11-06T03:55:19.287Z,99.90
2018-11-06T03:57:46.878Z,99.90
2018-11-06T04:00:14.821Z,99.90
2018-11-06T04:02:42.945Z,99.90
2018-11-06T04:05:11.146Z,99.90
2018-11-06T04:07:38.687Z,99.90
2018-11-06T04:10:09.248Z,99.90
2018-11-06T04:12:37.037Z,99.90
2018-11-06T04:15:05.836Z,99.90
2018-11-06T04:17:33.480Z,99.90
2018-11-06T04:20:01.104Z,99.90
2018-11-06T04:22:34.695Z,99.90
2018-11-06T04:25:08.452Z,99.90
2018-11-06T04:27:36.021Z,99.90
2018-11-06T04:30:06.809Z,99.90
2018-11-06T04:32:34.401Z,99.90
2018-11-06T04:35:01.956Z,99.90
2018-11-06T04:37:31.668Z,99.90
2018-11-06T04:39:59.191Z,99.90
2018-11-06T04:42:28.309Z,99.90
2018-11-06T04:45:04.376Z,99.90
2018-11-06T04:47:39.004Z,99.90
2018-11-06T04:50:13.162Z,99.90
2018-11-06T04:52:41.181Z,99.90
2018-11-06T04:55:10.847Z,99.90
2018-11-06T04:57:38.436Z,99.90
2018-11-06T05:00:13.185Z,99.90
2018-11-06T05:02:41.317Z,99.90
2018-11-06T05:05:12.543Z,99.90
2018-11-06T05:07:40.327Z,99.90
2018-11-06T05:10:09.911Z,99.90
2018-11-06T05:12:37.662Z,99.90
2018-11-06T05:15:06.493Z,99.90
2018-11-06T05:17:34.002Z,99.90
2018-11-06T05:20:02.970Z,99.90
2018-11-06T05:22:30.507Z,99.90
2018-11-06T05:24:58.019Z,99.90
2018-11-06T05:27:29.044Z,99.90
2018-11-06T05:29:56.644Z,99.90
2018-11-06T05:32:24.330Z,99.90
2018-11-06T05:34:51.966Z,99.90
2018-11-06T05:37:19.478Z,99.90
2018-11-06T05:39:58.355Z,99.90
2018-11-06T05:42:25.897Z,99.90
2018-11-06T05:44:53.425Z,99.90
2018-11-06T05:47:20.979Z,99.90
2018-11-06T05:49:48.488Z,99.90
2018-11-06T05:52:17.111Z,99.90
2018-11-06T05:54:44.624Z,99.90
2018-11-06T05:57:13.158Z,99.90
2018-11-06T05:59:40.659Z,99.90
2018-11-06T06:02:08.371Z,99.90
2018-11-06T06:04:36.992Z,99.90
2018-11-06T06:07:04.679Z,99.90
2018-11-06T06:09:32.274Z,99.90
2018-11-06T06:11:59.872Z,99.90
2018-11-06T06:14:29.852Z,99.90
2018-11-06T06:16:58.531Z,99.90
2018-11-06T06:19:26.152Z,99.90
2018-11-06T06:21:56.679Z,99.90
2018-11-06T06:24:24.272Z,99.90
2018-11-06T06:26:51.890Z,99.90
2018-11-06T06:29:19.451Z,99.90
2018-11-06T06:31:48.010Z,99.90
2018-11-06T06:34:15.545Z,99.90
2018-11-06T06:36:43.098Z,99.90
2018-11-06T06:39:10.636Z,99.90
2018-11-06T06:41:38.779Z,99.90
2018-11-06T06:44:06.524Z,99.90
2018-11-06T06:46:34.544Z,99.90
2018-11-06T06:49:02.080Z,99.90
2018-11-06T06:51:29.654Z,99.90
2018-11-06T06:53:57.267Z,99.90
2018-11-06T06:56:24.796Z,99.90
2018-11-06T06:58:52.676Z,99.90
2018-11-06T07:01:20.211Z,99.90
2018-11-06T07:03:49.851Z,99.90
2018-11-06T07:06:17.437Z,99.90
2018-11-06T07:08:47.078Z,99.90
2018-11-06T07:11:14.628Z,99.90
2018-11-06T07:13:42.209Z,99.90
2018-11-06T07:16:09.758Z,99.90
2018-11-06T07:18:37.719Z,99.90
2018-11-06T07:21:05.473Z,99.90
2018-11-06T07:23:34.096Z,99.90
2018-11-06T07:26:05.171Z,99.90
2018-11-06T07:28:32.902Z,99.90
2018-11-06T07:31:00.581Z,99.90
2018-11-06T07:33:28.420Z,99.90
2018-11-06T07:35:56.395Z,99.90
2018-11-06T07:38:23.989Z,99.90
2018-11-06T07:40:51.530Z,99.90
2018-11-06T07:43:19.220Z,99.90
2018-11-06T07:45:46.776Z,99.90
2018-11-06T07:48:14.282Z,99.90
2018-11-06T07:50:41.991Z,99.90
2018-11-06T07:53:09.659Z,99.90
2018-11-06T07:55:38.876Z,99.90
2018-11-06T07:58:06.689Z,99.90
2018-11-06T08:00:35.291Z,99.90
2018-11-06T08:03:02.832Z,99.90
2018-11-06T08:05:31.011Z,99.90
2018-11-06T08:08:01.600Z,99.90
2018-11-06T08:10:31.105Z,99.90
2018-11-06T08:13:05.536Z,99.90
2018-11-06T08:15:34.171Z,99.90
2018-11-06T08:18:02.797Z,99.90
2018-11-06T08:20:30.382Z,99.90
2018-11-06T08:22:57.951Z,99.90
2018-11-06T08:25:25.528Z,99.90
2018-11-06T08:27:53.068Z,99.90
2018-11-06T08:30:21.726Z,99.90
2018-11-06T08:32:49.593Z,99.90
2018-11-06T08:35:17.496Z,99.90
2018-11-06T08:37:47.215Z,99.90
2018-11-06T08:40:15.942Z,99.90
2018-11-06T08:42:43.612Z,99.90
2018-11-06T08:45:13.401Z,99.90
2018-11-06T08:47:42.999Z,99.90
2018-11-06T08:50:12.863Z,99.90
2018-11-06T08:52:42.848Z,99.90
2018-11-06T08:55:11.502Z,99.90
2018-11-06T08:57:39.564Z,99.90
2018-11-06T09:00:08.637Z,99.90
2018-11-06T09:02:36.414Z,99.90
2018-11-06T09:05:04.992Z,99.90
2018-11-06T09:07:32.612Z,99.90
2018-11-06T09:10:00.172Z,99.90
2018-11-06T09:12:29.036Z,99.90
2018-11-06T09:14:57.612Z,99.90
2018-11-06T09:17:25.204Z,99.90
2018-11-06T09:19:52.987Z,99.90
2018-11-06T09:22:21.652Z,99.90
2018-11-06T09:24:49.203Z,99.90
2018-11-06T09:27:16.812Z,99.90
2018-11-06T09:29:44.399Z,99.90
2018-11-06T09:32:11.939Z,99.90
2018-11-06T09:34:41.648Z,99.90
2018-11-06T09:37:09.248Z,99.90
2018-11-06T09:39:38.883Z,99.90
2018-11-06T09:42:07.435Z,99.90
2018-11-06T09:44:37.078Z,99.90
2018-11-06T09:47:05.747Z,99.90
2018-11-06T09:49:34.404Z,99.90
2018-11-06T09:52:03.134Z,99.90
2018-11-06T09:54:30.628Z,99.90
2018-11-06T09:56:58.186Z,99.90
2018-11-06T09:59:25.732Z,99.90
2018-11-06T10:01:54.332Z,99.90
2018-11-06T10:04:21.940Z,99.90
2018-11-06T10:06:49.684Z,97.60
2018-11-06T10:09:18.277Z,92.70
2018-11-06T10:11:45.815Z,94.00
2018-11-06T10:14:13.360Z,95.50
2018-11-06T10:16:42.015Z,96.70
2018-11-06T10:19:09.545Z,98.40
2018-11-06T10:21:39.410Z,96.40
2018-11-06T10:24:07.038Z,98.90
2018-11-06T10:26:34.600Z,99.00
2018-11-06T10:29:03.373Z,96.00
2018-11-06T10:31:30.947Z,95.60
2018-11-06T10:33:58.684Z,93.90
2018-11-06T10:36:29.224Z,93.60
2018-11-06T10:38:56.752Z,89.20
2018-11-06T10:41:24.358Z,89.20
2018-11-06T10:43:51.907Z,87.40
2018-11-06T10:46:19.460Z,90.00
2018-11-06T10:48:47.074Z,89.90
2018-11-06T10:51:14.629Z,91.90
2018-11-06T10:53:42.200Z,94.20
2018-11-06T10:56:10.752Z,95.20
2018-11-06T10:58:38.427Z,92.00
2018-11-06T11:01:11.736Z,91.80
2018-11-06T11:04:43.277Z,95.40
2018-11-06T11:07:10.844Z,93.00
2018-11-06T11:09:39.560Z,91.20
2018-11-06T11:12:07.129Z,92.80
2018-11-06T11:14:34.846Z,93.60
2018-11-06T11:17:02.412Z,94.80
2018-11-06T11:19:30.669Z,96.70
2018-11-06T11:22:00.351Z,95.60
2018-11-06T11:24:29.062Z,97.20
2018-11-06T11:26:56.649Z,99.50
2018-11-06T11:29:24.663Z,98.10
2018-11-06T11:31:52.234Z,98.10
2018-11-06T11:34:20.859Z,99.70
2018-11-06T11:36:48.394Z,99.90
2018-11-06T11:39:15.919Z,99.90
2018-11-06T11:41:43.476Z,99.90
2018-11-06T11:44:11.018Z,99.90
2018-11-06T11:46:38.576Z,99.90
2018-11-06T11:49:06.379Z,99.90
2018-11-06T11:51:33.958Z,97.10
2018-11-06T11:54:01.467Z,96.70
2018-11-06T11:56:30.809Z,98.30
2018-11-06T11:59:00.375Z,97.90
2018-11-06T12:01:29.938Z,97.60
2018-11-06T12:03:59.668Z,99.90
2018-11-06T12:06:31.455Z,99.10
2018-11-06T12:09:00.071Z,99.40
2018-11-06T12:11:30.651Z,98.10
2018-11-06T12:13:58.597Z,94.80
2018-11-06T12:16:27.684Z,95.90
2018-11-06T12:18:56.631Z,94.60
2018-11-06T12:21:25.319Z,96.60
2018-11-06T12:23:53.048Z,96.10
2018-11-06T12:26:21.302Z,94.60
2018-11-06T12:28:49.922Z,93.10
2018-11-06T12:31:18.921Z,93.10
2018-11-06T12:33:46.488Z,91.80
2018-11-06T12:36:14.186Z,91.70
2018-11-06T12:38:41.802Z,89.30
2018-11-06T12:41:09.362Z,90.20
2018-11-06T12:43:36.997Z,90.70
2018-11-06T12:46:04.921Z,91.40
2018-11-06T12:48:32.612Z,92.00
2018-11-06T12:51:00.262Z,93.80
2018-11-06T12:53:28.808Z,94.70
2018-11-06T12:55:56.372Z,95.20
2018-11-06T12:58:24.077Z,96.90
2018-11-06T13:00:52.606Z,94.60
2018-11-06T13:03:21.234Z,95.20
2018-11-06T13:05:48.847Z,94.70
2018-11-06T13:08:16.481Z,95.60
2018-11-06T13:10:44.065Z,97.00
2018-11-06T13:13:11.605Z,97.50
2018-11-06T13:15:39.269Z,95.80
2018-11-06T13:18:06.943Z,97.80
2018-11-06T13:20:36.477Z,99.40
2018-11-06T13:23:04.009Z,99.80
2018-11-06T13:25:31.607Z,99.90
2018-11-06T13:27:59.729Z,99.90
2018-11-06T13:30:27.872Z,99.90
2018-11-06T13:32:55.369Z,99.90
2018-11-06T13:35:23.085Z,99.90
2018-11-06T13:37:50.623Z,99.90
2018-11-06T13:40:18.236Z,99.90
2018-11-06T13:42:46.146Z,99.90
2018-11-06T13:45:16.294Z,99.90
2018-11-06T13:47:43.786Z,99.90
2018-11-06T13:50:11.387Z,99.90
2018-11-06T13:52:39.207Z,99.90
2018-11-06T13:55:09.316Z,99.90
2018-11-06T13:57:37.124Z,99.90
2018-11-06T14:00:08.848Z,99.90
2018-11-06T14:02:36.426Z,99.90
2018-11-06T14:05:04.256Z,99.90
2018-11-06T14:07:32.021Z,99.90
2018-11-06T14:10:00.590Z,99.90
2018-11-06T14:12:28.871Z,99.90
2018-11-06T14:14:57.614Z,99.90
2018-11-06T14:17:25.216Z,99.90
2018-11-06T14:19:52.897Z,99.90
2018-11-06T14:22:20.647Z,99.90
2018-11-06T14:24:48.282Z,99.90
2018-11-06T14:27:15.965Z,99.90
2018-11-06T14:29:43.545Z,99.90
2018-11-06T14:32:11.110Z,99.90
2018-11-06T14:34:38.737Z,99.90
2018-11-06T14:37:06.260Z,99.90
2018-11-06T14:39:33.895Z,99.90
2018-11-06T14:42:01.829Z,99.90
2018-11-06T14:44:29.850Z,99.90
2018-11-06T14:46:57.455Z,99.90
2018-11-06T14:49:25.157Z,99.90
2018-11-06T14:51:52.659Z,99.90
2018-11-06T14:54:20.171Z,99.90
2018-11-06T14:56:47.700Z,99.90
2018-11-06T14:59:15.820Z,99.90
2018-11-06T15:01:44.549Z,99.90
2018-11-06T15:04:12.102Z,99.90
2018-11-06T15:06:39.631Z,99.90
2018-11-06T15:09:08.006Z,99.90
2018-11-06T15:11:35.830Z,99.90
2018-11-06T15:14:03.448Z,99.90
2018-11-06T15:16:31.064Z,99.90
2018-11-06T15:18:58.591Z,99.90
2018-11-06T15:21:26.317Z,99.90
2018-11-06T15:23:53.897Z,99.90
2018-11-06T15:26:22.609Z,99.90
2018-11-06T15:28:50.139Z,99.90
2018-11-06T15:31:17.770Z,99.90
2018-11-06T15:33:45.280Z,99.90
2018-11-06T15:36:12.810Z,99.90
2018-11-06T15:38:40.331Z,99.90
2018-11-06T15:41:07.974Z,99.90
2018-11-06T15:43:35.379Z,99.90
2018-11-06T15:46:03.118Z,99.90
2018-11-06T15:48:30.655Z,99.90
2018-11-06T15:50:59.166Z,99.90
2018-11-06T15:53:26.719Z,99.90
2018-11-06T15:55:54.198Z,99.90
2018-11-06T15:58:21.807Z,99.90
2018-11-06T16:00:49.515Z,99.90
2018-11-06T16:03:17.106Z,99.90
2018-11-06T16:05:44.651Z,99.90
2018-11-06T16:08:12.289Z,99.90
2018-11-06T16:10:39.946Z,99.90
2018-11-06T16:13:07.450Z,99.90
2018-11-06T16:15:34.942Z,99.90
2018-11-06T16:18:02.515Z,99.90
2018-11-06T16:20:30.183Z,99.90
2018-11-06T16:22:57.678Z,99.90
2018-11-06T16:25:25.311Z,99.90
2018-11-06T16:27:52.831Z,99.90
2018-11-06T16:30:21.446Z,99.90
2018-11-06T16:32:49.018Z,99.90
2018-11-06T16:35:17.763Z,99.90
2018-11-06T16:37:45.661Z,99.90
2018-11-06T16:40:13.822Z,99.90
2018-11-06T16:42:42.078Z,99.90
2018-11-06T16:45:12.220Z,99.90
2018-11-06T16:47:40.017Z,99.90
2018-11-06T16:50:08.874Z,99.90
2018-11-06T16:52:36.394Z,99.90
2018-11-06T16:55:03.963Z,99.90
2018-11-06T16:57:31.484Z,99.90
2018-11-06T17:00:00.227Z,99.90
2018-11-06T17:02:28.322Z,99.90
2018-11-06T17:04:56.043Z,99.90
2018-11-06T17:07:23.679Z,99.90
2018-11-06T17:09:51.299Z,99.90
2018-11-06T17:12:18.959Z,99.90
2018-11-06T17:14:46.816Z,99.90
2018-11-06T17:17:14.436Z,99.90
2018-11-06T17:19:42.561Z,99.90
2018-11-06T17:22:10.377Z,99.90
2018-11-06T17:24:38.010Z,99.90
2018-11-06T17:27:05.738Z,99.90
2018-11-06T17:29:33.596Z,99.90
2018-11-06T17:32:01.312Z,99.90
2018-11-06T17:34:29.907Z,99.90
2018-11-06T17:36:57.534Z,99.90
2018-11-06T17:39:25.156Z,99.90
2018-11-06T17:41:52.776Z,99.90
2018-11-06T17:44:20.418Z,99.90
2018-11-06T17:46:48.045Z,99.90
2018-11-06T17:49:15.626Z,99.90
2018-11-06T17:51:43.310Z,99.90
2018-11-06T17:54:10.815Z,99.90
2018-11-06T17:56:38.662Z,99.90
2018-11-06T17:59:06.284Z,99.90
2018-11-06T18:01:35.135Z,99.90
2018-11-06T18:04:02.898Z,99.90
2018-11-06T18:06:30.504Z,99.90
2018-11-06T18:08:58.062Z,99.90
2018-11-06T18:11:25.795Z,99.90
2018-11-06T18:13:53.502Z,99.90
2018-11-06T18:16:21.197Z,99.90
2018-11-06T18:18:48.724Z,99.90
2018-11-06T18:21:16.416Z,99.90
2018-11-06T18:23:43.991Z,99.90
2018-11-06T18:26:11.679Z,99.90
2018-11-06T18:28:39.548Z,99.90
2018-11-06T18:31:07.139Z,99.90
2018-11-06T18:33:34.834Z,99.90
2018-11-06T18:36:02.578Z,99.90
2018-11-06T18:38:31.474Z,99.90
2018-11-06T18:40:59.072Z,99.90
2018-11-06T18:43:26.657Z,99.90
2018-11-06T18:45:54.298Z,99.90
2018-11-06T18:48:21.802Z,99.90
2018-11-06T18:50:49.377Z,99.90
2018-11-06T18:53:16.950Z,99.90
2018-11-06T18:55:44.471Z,99.90
2018-11-06T18:58:12.239Z,99.90
2018-11-06T19:00:39.913Z,99.90
2018-11-06T19:03:07.430Z,99.90
2018-11-06T19:05:35.303Z,99.90
2018-11-06T19:08:02.902Z,99.90
2018-11-06T19:10:31.376Z,99.90
2018-11-06T19:13:01.003Z,99.90
2018-11-06T19:15:31.488Z,99.90
2018-11-06T19:17:59.416Z,99.90
2018-11-06T19:20:27.126Z,99.90
2018-11-06T19:22:54.601Z,99.90
2018-11-06T19:25:22.131Z,99.90
2018-11-06T19:27:49.592Z,99.90
2018-11-06T19:30:18.266Z,99.90
2018-11-06T19:32:45.831Z,99.90
2018-11-06T19:35:13.401Z,99.90
2018-11-06T19:37:41.117Z,99.90
2018-11-06T19:40:09.885Z,99.90
2018-11-06T19:42:38.278Z,99.90
2018-11-06T19:45:06.553Z,99.90
2018-11-06T19:47:34.318Z,99.90
2018-11-06T19:50:02.027Z,99.90
2018-11-06T19:52:30.141Z,99.90
2018-11-06T19:54:57.915Z,99.90
2018-11-06T19:57:25.482Z,99.90
2018-11-06T19:59:53.076Z,99.90
2018-11-06T20:02:20.721Z,99.90
2018-11-06T20:04:48.217Z,99.90
2018-11-06T20:07:15.798Z,99.90
2018-11-06T20:09:43.381Z,99.90
2018-11-06T20:12:10.950Z,99.90
2018-11-06T20:14:38.684Z,99.90
2018-11-06T20:17:06.484Z,99.90
2018-11-06T20:19:34.175Z,99.90
2018-11-06T20:22:01.744Z,99.90
2018-11-06T20:24:30.044Z,99.90
2018-11-06T20:26:57.599Z,99.90
2018-11-06T20:29:25.358Z,99.90
2018-11-06T20:31:52.901Z,99.90
2018-11-06T20:34:20.557Z,99.90
2018-11-06T20:36:48.136Z,99.90
2018-11-06T20:39:15.678Z,99.90
2018-11-06T20:41:43.251Z,99.90
2018-11-06T20:44:10.859Z,99.90
2018-11-06T20:46:38.577Z,99.90
2018-11-06T20:49:06.298Z,99.90
2018-11-06T20:51:34.168Z,99.90
2018-11-06T20:54:01.708Z,99.90
2018-11-06T20:56:29.773Z,99.90
2018-11-06T20:58:57.317Z,99.90
2018-11-06T21:01:24.969Z,99.90
2018-11-06T21:03:52.516Z,99.90
2018-11-06T21:06:20.143Z,99.90
2018-11-06T21:08:47.695Z,99.90
2018-11-06T21:11:15.295Z,99.90
2018-11-06T21:13:42.947Z,99.90
2018-11-06T21:16:10.460Z,99.90
2018-11-06T21:18:38.025Z,99.90
2018-11-06T21:21:05.872Z,99.90
2018-11-06T21:23:33.699Z,99.90
2018-11-06T21:26:01.490Z,99.90
2018-11-06T21:29:53.417Z,99.90
2018-11-06T21:32:21.053Z,99.90
2018-11-06T21:34:48.628Z,99.90
2018-11-06T21:37:16.184Z,99.90
2018-11-06T21:39:43.751Z,99.90
2018-11-06T21:42:11.423Z,99.90
2018-11-06T21:44:39.020Z,99.90
2018-11-06T21:47:06.639Z,99.90
2018-11-06T21:49:34.398Z,99.90
2018-11-06T21:52:02.154Z,99.90
2018-11-06T21:54:31.741Z,99.90
2018-11-06T21:58:02.040Z,99.90
2018-11-06T22:00:29.897Z,99.90
2018-11-06T22:02:57.343Z,99.90
2018-11-06T22:05:25.075Z,99.90
2018-11-06T22:07:52.663Z,99.90
2018-11-06T22:10:20.884Z,99.90
2018-11-06T22:12:48.513Z,99.90
2018-11-06T22:15:17.043Z,99.90
2018-11-06T22:17:49.007Z,99.90
2018-11-06T22:20:17.992Z,99.90
2018-11-06T22:22:46.203Z,99.90
2018-11-06T22:25:16.375Z,99.90
2018-11-06T22:27:44.259Z,99.90
2018-11-06T22:30:13.150Z,99.90
2018-11-06T22:32:43.732Z,99.90
2018-11-06T22:35:13.699Z,99.90
2018-11-06T22:37:41.644Z,99.90
2018-11-06T22:40:10.762Z,99.90
2018-11-06T22:42:38.743Z,99.90
2018-11-06T22:45:08.014Z,99.90
2018-11-06T22:47:37.907Z,99.90
2018-11-06T22:50:08.362Z,99.90
2018-11-06T22:52:36.411Z,99.90
2018-11-06T22:55:06.518Z,99.90
2018-11-06T22:57:34.535Z,99.90
2018-11-06T23:00:04.887Z,99.90
2018-11-06T23:02:32.683Z,99.90
2018-11-06T23:05:00.724Z,99.90
2018-11-06T23:07:34.116Z,99.90
2018-11-06T23:10:01.927Z,99.90
2018-11-06T23:12:30.330Z,99.90
2018-11-06T23:14:59.105Z,99.90
2018-11-06T23:17:27.865Z,99.90
2018-11-06T23:19:55.925Z,99.90
2018-11-06T23:22:29.564Z,99.90
2018-11-06T23:24:58.659Z,99.90
2018-11-06T23:27:26.368Z,99.90
2018-11-06T23:29:54.408Z,99.90
2018-11-06T23:32:22.246Z,99.90
2018-11-06T23:34:51.070Z,99.90
2018-11-06T23:37:18.871Z,99.90
2018-11-06T23:39:46.691Z,99.90
2018-11-06T23:42:15.490Z,99.90
2018-11-06T23:44:43.272Z,99.90
2018-11-06T23:47:11.192Z,99.90
2018-11-06T23:49:39.107Z,99.90
2018-11-06T23:52:07.175Z,99.90
2018-11-06T23:54:36.067Z,99.90
2018-11-06T23:57:04.540Z,99.90
2018-11-06T23:59:32.360Z,99.90
